Time;durP1;ratioP1;P1;durP2;ratioP2;P2;SDS_P1;SDS_P2;PMS_P1;PMS_P2;Temp;Humidity;BMP_temperature;BMP_pressure;BME280_temperature;BME280_humidity;BME280_pressure;Samples;Min_cycle;Max_cycle;Signal;HPM_P1;HPM_P2
2022/08/01 00:00:05;;;;;;;;;0.67;0.67;;;;;23.47;52.91;98234.88;4927138;28;102689;-92
2022/08/01 00:02:35;;;;;;;;;0.00;0.00;;;;;23.45;53.08;98228.84;4945000;28;102737;-92
2022/08/01 00:05:05;;;;;;;;;0.00;0.00;;;;;23.45;53.13;98229.66;4942732;28;105101;-93
2022/08/01 00:07:35;;;;;;;;;0.00;0.00;;;;;23.43;53.15;98228.25;4939084;28;102320;-92
2022/08/01 00:10:07;;;;;;;;;0.00;0.00;;;;;23.46;53.13;98224.97;4947735;28;102361;-92
2022/08/01 00:12:35;;;;;;;;;0.00;0.00;;;;;23.43;53.13;98225.50;4945138;28;104292;-92
2022/08/01 00:15:03;;;;;;;;;0.67;0.67;;;;;23.44;52.90;98235.47;4905360;28;104167;-93
2022/08/01 00:17:30;;;;;;;;;0.00;0.00;;;;;23.44;53.22;98243.75;4918464;28;102587;-92
2022/08/01 00:19:58;;;;;;;;;0.00;0.00;;;;;23.41;53.00;98225.81;4914448;28;105040;-92
2022/08/01 00:22:25;;;;;;;;;0.00;0.00;;;;;23.43;52.98;98233.78;4921024;28;104247;-93
2022/08/01 00:24:52;;;;;;;;;0.00;0.00;;;;;23.42;52.73;98221.91;4926203;28;104187;-92
2022/08/01 00:27:19;;;;;;;;;0.00;0.00;;;;;23.41;53.02;98228.56;4932653;28;102779;-93
2022/08/01 00:29:47;;;;;;;;;0.00;0.00;;;;;23.42;52.91;98221.91;4943600;28;102483;-92
2022/08/01 00:32:34;;;;;;;;;0.67;0.67;;;;;23.40;53.05;98213.13;4944180;28;109972;-92
2022/08/01 00:35:01;;;;;;;;;0.00;0.00;;;;;23.42;52.87;98216.41;4945576;28;104235;-93
2022/08/01 00:37:29;;;;;;;;;0.00;0.00;;;;;23.39;53.21;98216.19;4929277;28;102398;-93
2022/08/01 00:39:56;;;;;;;;;0.00;0.00;;;;;23.40;53.20;98212.31;4946305;28;103927;-92
2022/08/01 00:42:23;;;;;;;;;1.00;1.00;;;;;23.39;53.23;98216.19;4947970;28;102405;-92
2022/08/01 00:44:50;;;;;;;;;0.33;0.33;;;;;23.34;53.14;98208.78;4928529;28;108875;-93
2022/08/01 00:47:17;;;;;;;;;1.33;0.00;;;;;23.36;53.03;98212.06;4939971;28;102641;-92
2022/08/01 00:49:44;;;;;;;;;0.00;0.00;;;;;23.36;53.20;98212.06;4942200;28;102207;-92
2022/08/01 00:52:11;;;;;;;;;0.00;0.00;;;;;23.37;53.06;98213.69;4927018;28;104426;-92
2022/08/01 00:54:38;;;;;;;;;0.00;0.00;;;;;23.37;53.17;98221.19;4934249;28;104024;-93
2022/08/01 00:57:05;;;;;;;;;0.67;0.67;;;;;23.37;52.73;98208.19;4918555;28;102554;-92
2022/08/01 00:59:36;;;;;;;;;0.00;0.00;;;;;23.36;53.07;98217.59;4941824;28;102673;-92
2022/08/01 01:02:05;;;;;;;;;0.00;0.00;;;;;23.36;53.12;98219.53;4919462;28;105229;-93
2022/08/01 01:04:42;;;;;;;;;0.00;0.00;;;;;23.34;52.91;98217.06;4921242;28;104296;-92
2022/08/01 01:07:17;;;;;;;;;0.00;0.00;;;;;23.36;52.75;98222.28;4918409;28;102539;-92
2022/08/01 01:09:58;;;;;;;;;0.67;0.00;;;;;23.36;52.84;98225.03;4942976;28;103842;-92
2022/08/01 01:12:36;;;;;;;;;0.00;0.00;;;;;23.36;52.91;98225.03;4924584;28;102224;-93
2022/08/01 01:15:08;;;;;;;;;0.33;0.00;;;;;23.33;53.00;98217.34;4928437;28;104453;-93
2022/08/01 01:17:52;;;;;;;;;0.00;0.00;;;;;23.31;53.35;98216.81;4912002;28;110450;-92
2022/08/01 01:20:21;;;;;;;;;0.00;0.00;;;;;23.31;53.32;98222.34;4928165;28;103825;-93
2022/08/01 01:22:57;;;;;;;;;0.00;0.00;;;;;23.29;53.30;98219.88;4932838;28;102732;-92
2022/08/01 01:25:36;;;;;;;;;1.00;1.00;;;;;23.32;53.02;98221.22;4942904;28;109203;-92
2022/08/01 01:28:15;;;;;;;;;0.00;0.00;;;;;23.29;53.04;98222.63;4940663;28;102330;-92
2022/08/01 01:30:44;;;;;;;;;0.00;0.00;;;;;23.28;53.20;98223.72;4930347;28;102210;-92
2022/08/01 01:33:12;;;;;;;;;0.67;0.00;;;;;23.30;53.14;98220.69;4922257;28;103508;-93
2022/08/01 01:35:46;;;;;;;;;0.00;0.00;;;;;23.27;53.23;98210.25;4927338;28;103084;-93
2022/08/01 01:38:19;;;;;;;;;1.00;0.00;;;;;23.30;53.10;98224.28;4930011;28;103202;-93
2022/08/01 01:40:47;;;;;;;;;0.00;0.00;;;;;23.28;52.96;98214.66;4944551;28;102659;-92
2022/08/01 01:43:15;;;;;;;;;1.00;1.00;;;;;23.28;52.89;98217.41;4927210;28;102255;-93
2022/08/01 01:45:42;;;;;;;;;0.00;0.00;;;;;23.26;52.78;98214.94;4924031;28;104188;-92
2022/08/01 01:48:10;;;;;;;;;0.00;0.00;;;;;23.28;52.85;98209.16;4943378;28;102619;-92
2022/08/01 01:50:37;;;;;;;;;0.00;0.00;;;;;23.23;53.07;98204.50;4914526;28;102257;-92
2022/08/01 01:53:04;;;;;;;;;0.67;0.67;;;;;23.25;53.13;98204.19;4935996;28;102543;-93
2022/08/01 01:55:31;;;;;;;;;0.00;0.00;;;;;23.26;53.24;98212.19;4932098;28;105308;-92
2022/08/01 01:58:14;;;;;;;;;0.00;0.00;;;;;23.22;53.26;98213.88;4943046;28;103863;-92
2022/08/01 02:00:42;;;;;;;;;0.33;0.33;;;;;23.23;52.98;98209.19;4928194;28;102683;-93
2022/08/01 02:03:11;;;;;;;;;0.67;0.67;;;;;23.23;52.99;98203.69;4944352;28;103118;-92
2022/08/01 02:05:38;;;;;;;;;0.00;0.00;;;;;23.21;52.86;98197.63;4907460;28;104533;-92
2022/08/01 02:08:05;;;;;;;;;0.00;0.00;;;;;23.20;52.93;98195.97;4912604;28;105040;-92
2022/08/01 02:10:33;;;;;;;;;0.00;0.00;;;;;23.20;52.96;98196.78;4940574;28;102234;-92
2022/08/01 02:13:02;;;;;;;;;0.00;0.00;;;;;23.23;53.01;98206.44;4935140;28;103543;-92
2022/08/01 02:15:30;;;;;;;;;0.00;0.00;;;;;23.23;52.96;98203.69;4946996;28;104042;-92
2022/08/01 02:17:57;;;;;;;;;1.00;1.00;;;;;23.21;52.80;98208.66;4947242;28;102654;-92
2022/08/01 02:20:25;;;;;;;;;1.00;1.00;;;;;23.22;52.77;98210.31;4924186;28;102351;-92
2022/08/01 02:23:18;;;;;;;;;0.00;0.00;;;;;23.23;52.96;98198.16;4933113;28;102347;-92
2022/08/01 02:25:49;;;;;;;;;1.00;1.00;;;;;23.19;52.69;98200.66;4926286;28;109040;-93
2022/08/01 02:28:40;;;;;;;;;0.33;0.33;;;;;23.21;52.89;98203.13;4927019;28;104765;-92
2022/08/01 02:31:10;;;;;;;;;0.33;0.33;;;;;23.17;52.88;98202.06;4947183;28;102473;-93
2022/08/01 02:33:40;;;;;;;;;0.00;0.00;;;;;23.15;53.01;98216.16;4926533;28;102229;-93
2022/08/01 02:36:07;;;;;;;;;0.00;0.00;;;;;23.14;52.98;98207.03;4944922;28;104354;-93
2022/08/01 02:38:56;;;;;;;;;0.33;0.33;;;;;23.13;53.06;98201.84;4945711;28;102641;-92
2022/08/01 02:41:23;;;;;;;;;0.00;0.00;;;;;23.13;52.91;98205.44;4918233;28;102250;-92
2022/08/01 02:43:52;;;;;;;;;1.00;1.00;;;;;23.14;52.85;98206.25;4937406;28;103140;-91
2022/08/01 02:46:22;;;;;;;;;1.00;1.00;;;;;23.14;53.04;98207.03;4930441;28;104230;-93
2022/08/01 02:48:50;;;;;;;;;0.00;0.00;;;;;23.18;52.97;98209.25;4931076;28;103077;-92
2022/08/01 02:51:17;;;;;;;;;0.00;0.00;;;;;23.19;52.74;98208.13;4938178;28;103111;-92
2022/08/01 02:53:44;;;;;;;;;0.33;0.33;;;;;23.15;52.69;98218.91;4946013;28;102527;-92
2022/08/01 02:56:11;;;;;;;;;0.00;0.00;;;;;23.14;52.62;98209.81;4934987;28;103877;-92
2022/08/01 02:58:38;;;;;;;;;0.00;0.00;;;;;23.13;52.67;98201.84;4934753;28;102230;-93
2022/08/01 03:01:06;;;;;;;;;0.67;0.33;;;;;23.15;52.65;98210.63;4927067;28;102813;-92
2022/08/01 03:03:33;;;;;;;;;1.00;1.00;;;;;23.16;52.74;98208.69;4935413;28;104720;-92
2022/08/01 03:06:01;;;;;;;;;1.00;1.00;;;;;23.13;52.71;98216.47;4946757;28;104082;-92
2022/08/01 03:08:29;;;;;;;;;0.33;0.33;;;;;23.12;52.68;98206.53;4948497;28;102547;-93
2022/08/01 03:10:56;;;;;;;;;0.00;0.00;;;;;23.13;52.75;98212.88;4923267;28;102388;-92
2022/08/01 03:13:23;;;;;;;;;1.00;0.00;;;;;23.12;52.90;98209.28;4938661;28;102427;-93
2022/08/01 03:15:50;;;;;;;;;0.00;0.00;;;;;23.12;52.76;98216.75;4939032;28;103506;-92
2022/08/01 03:18:17;;;;;;;;;0.00;0.00;;;;;23.07;52.71;98214.84;4930911;28;102501;-92
2022/08/01 03:20:44;;;;;;;;;0.00;0.00;;;;;23.09;52.51;98217.34;4928782;28;102670;-92
2022/08/01 03:23:11;;;;;;;;;0.00;0.00;;;;;23.09;52.89;98218.16;4935447;28;102688;-92
2022/08/01 03:25:39;;;;;;;;;0.00;0.00;;;;;23.09;52.63;98217.34;4947637;28;102732;-92
2022/08/01 03:28:07;;;;;;;;;1.00;1.00;;;;;23.10;52.75;98213.44;4921822;28;102273;-92
2022/08/01 03:30:35;;;;;;;;;0.00;0.00;;;;;23.11;52.57;98215.91;4931402;28;103314;-93
2022/08/01 03:33:02;;;;;;;;;1.00;1.00;;;;;23.09;52.67;98215.41;4933178;28;102779;-92
2022/08/01 03:35:33;;;;;;;;;0.00;0.00;;;;;23.11;52.34;98220.59;4931359;28;104327;-93
2022/08/01 03:38:01;;;;;;;;;1.00;1.00;;;;;23.10;52.43;98211.50;4911249;28;103031;-92
2022/08/01 03:41:13;;;;;;;;;1.00;1.00;;;;;23.09;52.41;98218.16;4941297;28;102803;-92
2022/08/01 03:43:48;;;;;;;;;0.00;0.00;;;;;23.08;52.47;98216.50;4908909;28;103410;-93
2022/08/01 03:46:20;;;;;;;;;1.00;1.00;;;;;23.08;52.60;98218.44;4948132;28;104328;-92
2022/08/01 03:48:50;;;;;;;;;1.00;1.00;;;;;23.06;52.32;98229.75;4935760;28;102722;-93
2022/08/01 03:51:18;;;;;;;;;0.00;0.00;;;;;23.05;52.34;98222.63;4932179;28;102365;-92
2022/08/01 03:53:45;;;;;;;;;0.00;0.00;;;;;23.04;52.74;98232.00;4934286;28;102840;-93
2022/08/01 03:56:12;;;;;;;;;0.00;0.00;;;;;23.04;52.48;98229.25;4917017;28;104187;-92
2022/08/01 03:58:39;;;;;;;;;0.67;0.67;;;;;23.05;52.47;98228.13;4928941;28;102757;-92
2022/08/01 04:01:08;;;;;;;;;0.00;0.00;;;;;23.06;52.40;98232.50;4941423;28;102680;-92
2022/08/01 04:03:42;;;;;;;;;0.00;0.00;;;;;23.04;52.31;98232.00;4950009;28;102298;-92
2022/08/01 04:06:10;;;;;;;;;0.00;0.00;;;;;23.06;52.15;98238.03;4947396;28;104070;-92
2022/08/01 04:08:37;;;;;;;;;1.00;1.00;;;;;23.05;52.52;98244.69;4934474;28;102756;-92
2022/08/01 04:11:04;;;;;;;;;1.00;1.00;;;;;23.05;52.31;98241.91;4945236;28;102326;-92
2022/08/01 04:13:32;;;;;;;;;0.00;0.00;;;;;23.03;52.18;98241.38;4923941;28;102621;-92
2022/08/01 04:16:04;;;;;;;;;1.00;0.00;;;;;23.04;52.49;98243.03;4930797;28;103914;-92
2022/08/01 04:18:32;;;;;;;;;1.00;0.00;;;;;23.05;52.34;98250.19;4930535;28;102728;-93
2022/08/01 04:20:59;;;;;;;;;0.33;0.33;;;;;23.05;52.27;98241.09;4924532;28;102843;-93
2022/08/01 04:23:26;;;;;;;;;0.67;0.00;;;;;23.01;52.76;98238.06;4925217;28;102550;-96
2022/08/01 04:25:53;;;;;;;;;0.00;0.00;;;;;23.03;52.63;98246.88;4900587;28;109017;-92
2022/08/01 04:28:20;;;;;;;;;0.33;0.33;;;;;23.02;52.62;98253.50;4873492;28;102601;-93
2022/08/01 04:30:48;;;;;;;;;1.00;1.00;;;;;23.01;52.61;98249.09;4896508;28;103836;-93
2022/08/01 04:33:16;;;;;;;;;1.00;1.00;;;;;23.02;52.49;98245.25;4925790;28;102642;-93
2022/08/01 04:35:45;;;;;;;;;0.33;0.33;;;;;23.03;52.44;98243.31;4927637;28;104534;-92
2022/08/01 04:38:31;;;;;;;;;0.00;0.00;;;;;23.02;52.59;98233.38;4888913;28;102714;-93
2022/08/01 04:40:58;;;;;;;;;1.00;1.00;;;;;23.03;52.22;98230.34;4920612;28;102534;-93
2022/08/01 04:43:36;;;;;;;;;1.00;1.00;;;;;22.98;52.29;98227.63;4903154;28;102510;-93
2022/08/01 04:46:06;;;;;;;;;1.00;1.00;;;;;22.98;52.36;98229.56;4902334;28;104050;-93
2022/08/01 04:48:36;;;;;;;;;2.00;2.00;;;;;23.00;52.34;98230.94;4909469;28;103437;-92
2022/08/01 04:51:03;;;;;;;;;1.33;1.00;;;;;23.00;52.22;98241.97;4948240;28;102155;-93
2022/08/01 04:53:32;;;;;;;;;1.67;1.00;;;;;23.00;52.37;98238.38;4933936;28;102696;-92
2022/08/01 04:55:59;;;;;;;;;2.00;1.00;;;;;22.99;52.15;98240.31;4932508;28;104937;-92
2022/08/01 04:58:26;;;;;;;;;1.00;1.00;;;;;22.98;52.47;98235.91;4932770;28;103466;-93
2022/08/01 05:00:53;;;;;;;;;1.00;1.00;;;;;22.95;52.55;98233.75;4945202;28;102424;-93
2022/08/01 05:03:20;;;;;;;;;1.00;1.00;;;;;22.97;52.54;98231.50;4888748;28;102887;-93
2022/08/01 05:05:47;;;;;;;;;1.33;1.00;;;;;22.97;52.62;98233.44;4885805;28;104023;-92
2022/08/01 05:08:16;;;;;;;;;1.00;1.00;;;;;22.96;52.63;98235.38;4924961;28;102650;-93
2022/08/01 05:10:43;;;;;;;;;0.33;0.33;;;;;22.94;52.59;98243.13;4918925;28;102703;-92
2022/08/01 05:13:10;;;;;;;;;2.00;1.00;;;;;23.00;52.90;98249.41;4922639;28;102595;-92
2022/08/01 05:15:37;;;;;;;;;1.00;1.00;;;;;22.96;52.46;98237.31;4917562;28;105339;-92
2022/08/01 05:18:05;;;;;;;;;1.00;1.00;;;;;22.99;52.60;98245.84;4925446;28;102731;-93
2022/08/01 05:20:34;;;;;;;;;1.00;1.00;;;;;22.98;52.44;98244.19;4925046;28;102669;-92
2022/08/01 05:23:01;;;;;;;;;2.00;1.00;;;;;22.97;52.66;98244.47;4943742;28;102203;-92
2022/08/01 05:25:29;;;;;;;;;1.00;1.00;;;;;23.02;52.58;98244.41;4935896;28;104423;-92
2022/08/01 05:28:16;;;;;;;;;2.33;2.33;;;;;22.98;52.40;98244.19;4948744;28;102644;-93
2022/08/01 05:30:45;;;;;;;;;0.33;0.33;;;;;23.00;52.43;98244.72;4933890;28;102697;-92
2022/08/01 05:33:12;;;;;;;;;1.00;1.00;;;;;22.98;52.60;98240.59;4932056;28;102259;-92
2022/08/01 05:35:39;;;;;;;;;1.00;1.00;;;;;23.01;52.53;98242.78;4946421;28;103307;-92
2022/08/01 05:38:14;;;;;;;;;1.00;1.00;;;;;23.00;52.45;98241.97;4949040;28;103297;-92
2022/08/01 05:40:42;;;;;;;;;1.00;1.00;;;;;22.96;52.80;98245.59;4931337;28;102663;-93
2022/08/01 05:43:09;;;;;;;;;1.67;1.00;;;;;22.99;52.54;98251.34;4932379;28;102283;-93
2022/08/01 05:45:36;;;;;;;;;0.67;0.67;;;;;22.96;52.60;98249.19;4933565;28;104081;-92
2022/08/01 05:48:03;;;;;;;;;1.00;1.00;;;;;22.93;52.83;98235.94;4950666;28;102956;-93
2022/08/01 05:50:31;;;;;;;;;1.00;1.00;;;;;22.97;52.73;98231.50;4937395;28;102313;-93
2022/08/01 05:52:57;;;;;;;;;1.00;1.00;;;;;23.00;52.41;98230.94;4913418;28;105844;-93
2022/08/01 05:55:24;;;;;;;;;1.00;1.00;;;;;23.02;52.50;98239.72;4949338;28;108772;-93
2022/08/01 05:57:51;;;;;;;;;1.00;1.00;;;;;23.01;52.50;98235.31;4937380;28;102470;-93
2022/08/01 06:00:18;;;;;;;;;1.00;1.00;;;;;23.03;52.34;98235.84;4930334;28;103356;-93
2022/08/01 06:02:46;;;;;;;;;2.00;1.00;;;;;23.04;52.34;98248.53;4904215;28;102440;-93
2022/08/01 06:05:13;;;;;;;;;2.00;1.00;;;;;23.02;52.33;98245.25;4921247;28;110653;-93
2022/08/01 06:07:40;;;;;;;;;0.33;0.33;;;;;23.02;52.30;98247.16;4931691;28;102311;-93
2022/08/01 06:10:08;;;;;;;;;0.00;0.00;;;;;23.05;52.34;98244.69;4937513;28;102201;-93
2022/08/01 06:12:35;;;;;;;;;2.00;2.00;;;;;23.05;52.26;98247.44;4951513;28;102538;-92
2022/08/01 06:15:03;;;;;;;;;1.00;1.00;;;;;23.04;52.43;98245.78;4930542;28;104045;-93
2022/08/01 06:17:30;;;;;;;;;1.00;1.00;;;;;23.05;52.47;98255.72;4937171;28;102699;-92
2022/08/01 06:19:57;;;;;;;;;0.33;0.33;;;;;23.02;52.37;98244.41;4937033;28;102764;-92
2022/08/01 06:22:24;;;;;;;;;1.00;1.00;;;;;23.03;52.21;98248.81;4954165;28;102496;-92
2022/08/01 06:24:51;;;;;;;;;1.33;1.33;;;;;23.01;52.52;98243.59;4927691;28;103159;-92
2022/08/01 06:27:18;;;;;;;;;1.00;1.00;;;;;23.03;52.47;98252.41;4948991;28;102660;-92
2022/08/01 06:29:48;;;;;;;;;1.00;1.00;;;;;23.06;52.34;98251.81;4937986;28;102307;-92
2022/08/01 06:32:22;;;;;;;;;1.67;1.00;;;;;23.06;52.22;98254.56;4936744;28;102694;-92
2022/08/01 06:34:54;;;;;;;;;1.00;1.00;;;;;23.09;52.12;98250.44;4952727;28;111822;-92
2022/08/01 06:37:21;;;;;;;;;1.00;1.00;;;;;23.09;52.30;98262.28;4953844;28;102729;-92
2022/08/01 06:39:49;;;;;;;;;1.00;1.00;;;;;23.08;52.18;98254.28;4951627;28;102570;-92
2022/08/01 06:42:17;;;;;;;;;1.00;1.00;;;;;23.07;52.29;98260.91;4949381;28;102368;-92
2022/08/01 06:44:44;;;;;;;;;1.67;1.00;;;;;23.09;52.42;98266.97;4935087;28;103996;-92
2022/08/01 06:47:11;;;;;;;;;0.00;0.00;;;;;23.09;52.52;98265.06;4951210;28;102775;-92
2022/08/01 06:49:38;;;;;;;;;1.00;1.00;;;;;23.10;52.13;98257.56;4950064;28;102597;-92
2022/08/01 06:52:06;;;;;;;;;1.00;1.00;;;;;23.10;52.39;98265.84;4953173;28;102210;-92
2022/08/01 06:54:33;;;;;;;;;1.00;1.00;;;;;23.09;52.47;98261.47;4950668;28;104230;-91
2022/08/01 06:57:00;;;;;;;;;1.00;1.00;;;;;23.08;52.29;98260.63;4945721;28;102588;-92
2022/08/01 06:59:27;;;;;;;;;0.33;0.33;;;;;23.12;52.37;98260.88;4951977;28;102811;-92
2022/08/01 07:01:54;;;;;;;;;2.00;2.00;;;;;23.10;52.37;98261.16;4952658;28;102199;-91
2022/08/01 07:04:21;;;;;;;;;1.00;1.00;;;;;23.08;52.64;98257.88;4951915;28;104060;-92
2022/08/01 07:06:48;;;;;;;;;1.00;1.00;;;;;23.11;52.92;98254.53;4953886;28;102675;-91
2022/08/01 07:09:15;;;;;;;;;2.00;1.67;;;;;23.10;53.01;98247.38;4951208;28;102532;-91
2022/08/01 07:11:42;;;;;;;;;0.00;0.00;;;;;23.09;53.47;98254.00;4933467;28;102563;-91
2022/08/01 07:14:09;;;;;;;;;0.00;0.00;;;;;23.12;53.42;98261.69;4932550;28;104040;-92
2022/08/01 07:16:37;;;;;;;;;2.00;1.00;;;;;23.09;53.60;98259.53;4933893;28;102308;-91
2022/08/01 07:19:04;;;;;;;;;1.00;1.00;;;;;23.12;53.36;98256.19;4934182;28;102505;-92
2022/08/01 07:21:31;;;;;;;;;0.00;0.00;;;;;23.12;53.37;98261.69;4955359;28;102754;-92
2022/08/01 07:24:07;;;;;;;;;0.00;0.00;;;;;23.14;53.24;98253.16;4948505;28;104102;-92
2022/08/01 07:26:44;;;;;;;;;1.00;1.00;;;;;23.12;53.33;98247.91;4952921;28;102199;-92
2022/08/01 07:29:21;;;;;;;;;1.67;1.00;;;;;23.11;53.40;98249.00;4946726;28;102380;-92
2022/08/01 07:31:48;;;;;;;;;1.00;1.00;;;;;23.13;53.25;98246.81;4951149;28;102686;-92
2022/08/01 07:34:15;;;;;;;;;0.67;0.67;;;;;23.16;53.14;98244.56;4931745;28;102736;-92
2022/08/01 07:36:42;;;;;;;;;2.00;1.00;;;;;23.14;53.57;98256.69;4945455;28;102209;-92
2022/08/01 07:39:10;;;;;;;;;1.00;1.00;;;;;23.15;53.50;98254.75;4934615;28;102636;-92
2022/08/01 07:41:36;;;;;;;;;1.00;1.00;;;;;23.16;53.47;98261.09;4933930;28;102256;-92
2022/08/01 07:44:23;;;;;;;;;0.00;0.00;;;;;23.13;53.60;98252.31;4952065;28;110147;-92
2022/08/01 07:46:53;;;;;;;;;1.00;1.00;;;;;23.14;53.64;98248.41;4919740;28;102168;-91
2022/08/01 07:49:21;;;;;;;;;1.00;1.00;;;;;23.16;53.59;98247.31;4949797;28;102077;-92
2022/08/01 07:51:48;;;;;;;;;1.00;1.00;;;;;23.18;53.46;98253.38;4934109;28;102810;-92
2022/08/01 07:54:32;;;;;;;;;1.00;1.00;;;;;23.19;53.54;98255.03;4945010;28;108737;-92
2022/08/01 07:57:01;;;;;;;;;1.00;1.00;;;;;23.19;53.55;98244.00;4951648;28;102667;-92
2022/08/01 07:59:28;;;;;;;;;1.00;1.00;;;;;23.21;53.51;98241.75;4953109;28;102196;-92
2022/08/01 08:01:55;;;;;;;;;0.00;0.00;;;;;23.21;53.35;98242.56;4946390;28;102086;-92
2022/08/01 08:04:22;;;;;;;;;2.00;2.00;;;;;23.19;53.32;98244.78;4947250;28;104122;-92
2022/08/01 08:06:49;;;;;;;;;1.00;1.00;;;;;23.23;53.50;98245.06;4950401;28;102967;-92
2022/08/01 08:09:16;;;;;;;;;1.00;1.00;;;;;23.18;53.55;98226.63;4950005;28;102627;-92
2022/08/01 08:11:44;;;;;;;;;0.67;0.67;;;;;23.20;53.29;98245.63;4935136;28;103152;-92
2022/08/01 08:14:14;;;;;;;;;2.00;1.00;;;;;23.20;53.41;98235.41;4933962;28;104124;-92
2022/08/01 08:16:41;;;;;;;;;0.67;0.67;;;;;23.21;53.28;98239.81;4949587;28;102636;-92
2022/08/01 08:19:08;;;;;;;;;1.33;1.33;;;;;23.24;53.10;98241.16;4949108;28;102163;-92
2022/08/01 08:21:37;;;;;;;;;1.00;0.33;;;;;23.23;53.87;98231.25;4951490;28;102422;-92
2022/08/01 08:24:20;;;;;;;;;1.67;1.00;;;;;23.23;53.62;98239.53;4936958;28;104537;-92
2022/08/01 08:26:57;;;;;;;;;1.33;1.00;;;;;23.24;53.58;98230.94;4936562;28;102653;-91
2022/08/01 08:29:25;;;;;;;;;0.00;0.00;;;;;23.24;53.63;98232.88;4932456;28;103426;-92
2022/08/01 08:31:52;;;;;;;;;2.00;2.00;;;;;23.28;53.31;98237.53;4932170;28;102248;-92
2022/08/01 08:34:19;;;;;;;;;0.00;0.00;;;;;23.26;53.20;98238.94;4945910;28;104315;-92
2022/08/01 08:36:48;;;;;;;;;1.00;1.00;;;;;23.31;53.08;98238.91;4913545;28;102659;-93
2022/08/01 08:39:16;;;;;;;;;1.00;1.00;;;;;23.29;53.26;98239.19;4947598;28;102648;-92
2022/08/01 08:41:46;;;;;;;;;0.00;0.00;;;;;23.33;53.19;98250.44;4950620;28;102795;-92
2022/08/01 08:44:15;;;;;;;;;0.00;0.00;;;;;23.32;53.54;98240.53;4948456;28;104460;-92
2022/08/01 08:46:50;;;;;;;;;1.00;1.00;;;;;23.34;53.16;98257.63;4927688;28;102455;-92
2022/08/01 08:49:19;;;;;;;;;0.00;0.00;;;;;23.34;53.33;98241.06;4929496;28;102354;-92
2022/08/01 08:51:51;;;;;;;;;0.00;0.00;;;;;23.36;53.21;98255.41;4932998;28;102765;-92
2022/08/01 08:54:20;;;;;;;;;1.00;1.00;;;;;23.37;53.02;98243.25;4932413;28;104234;-92
2022/08/01 08:56:57;;;;;;;;;0.00;0.00;;;;;23.37;53.21;98246.00;4918910;28;102433;-92
2022/08/01 08:59:24;;;;;;;;;0.00;0.00;;;;;23.37;52.98;98252.31;4917862;28;104805;-92
2022/08/01 09:01:51;;;;;;;;;1.00;1.00;;;;;23.40;53.42;98254.53;4949594;28;102541;-92
2022/08/01 09:04:22;;;;;;;;;1.00;1.00;;;;;23.40;53.22;98251.75;4949720;28;103477;-92
2022/08/01 09:06:52;;;;;;;;;2.00;1.00;;;;;23.42;53.42;98254.22;4931150;28;102941;-92
2022/08/01 09:09:19;;;;;;;;;0.33;0.33;;;;;23.43;53.10;98250.34;4930249;28;102107;-92
2022/08/01 09:11:46;;;;;;;;;1.33;0.33;;;;;23.43;53.11;98245.66;4949991;28;102117;-92
2022/08/01 09:14:34;;;;;;;;;1.00;1.00;;;;;23.46;52.89;98260.84;4949188;28;104250;-92
2022/08/01 09:17:07;;;;;;;;;0.00;0.00;;;;;23.49;52.72;98251.97;4920940;28;102688;-92
2022/08/01 09:19:39;;;;;;;;;0.33;0.33;;;;;23.49;52.64;98249.22;4931414;28;102241;-92
2022/08/01 09:22:09;;;;;;;;;0.00;0.00;;;;;23.50;52.70;98250.88;4931744;28;102529;-92
2022/08/01 09:24:36;;;;;;;;;1.67;1.00;;;;;23.52;52.99;98254.13;4931732;28;104130;-92
2022/08/01 09:27:19;;;;;;;;;1.00;1.00;;;;;23.52;52.59;98259.66;4945849;28;102568;-93
2022/08/01 09:29:48;;;;;;;;;1.00;1.00;;;;;23.52;52.60;98254.13;4928915;28;102503;-92
2022/08/01 09:32:28;;;;;;;;;1.00;1.00;;;;;23.54;52.54;98262.97;4948024;28;102194;-92
2022/08/01 09:35:26;;;;;;;;;0.33;0.33;;;;;23.52;52.53;98254.97;4946173;28;108896;-92
2022/08/01 09:38:20;;;;;;;;;0.67;0.67;;;;;23.52;52.50;98260.47;4949986;28;101998;-92
2022/08/01 09:40:54;;;;;;;;;0.00;0.00;;;;;23.49;52.60;98258.31;4926643;28;102891;-92
2022/08/01 09:43:25;;;;;;;;;1.00;0.00;;;;;23.54;52.47;98262.97;4933185;28;102244;-92
2022/08/01 09:45:53;;;;;;;;;0.33;0.33;;;;;23.54;52.52;98266.53;4946176;28;103138;-92
2022/08/01 09:48:21;;;;;;;;;1.00;1.00;;;;;23.56;52.31;98272.56;4920437;28;102645;-92
2022/08/01 09:50:55;;;;;;;;;1.00;1.00;;;;;23.55;52.37;98270.94;4932924;28;102631;-92
2022/08/01 09:53:46;;;;;;;;;1.00;0.67;;;;;23.56;52.06;98272.56;4950161;28;102686;-92
2022/08/01 09:56:19;;;;;;;;;1.00;1.00;;;;;23.59;52.18;98273.94;4937083;28;104084;-92
2022/08/01 09:58:53;;;;;;;;;0.00;0.00;;;;;23.60;52.13;98278.31;4935717;28;102356;-92
2022/08/01 10:01:48;;;;;;;;;0.00;0.00;;;;;23.61;52.24;98282.75;4952909;28;102599;-92
2022/08/01 10:04:20;;;;;;;;;1.00;1.00;;;;;23.60;52.23;98270.03;4953333;28;103700;-92
2022/08/01 10:06:52;;;;;;;;;0.67;0.67;;;;;23.61;52.32;98274.47;4922613;28;104073;-92
2022/08/01 10:09:29;;;;;;;;;1.00;1.00;;;;;23.59;52.23;98273.94;4935069;28;102769;-92
2022/08/01 10:12:06;;;;;;;;;1.33;1.00;;;;;23.57;52.85;98278.94;4929099;28;103471;-92
2022/08/01 10:14:34;;;;;;;;;0.00;0.00;;;;;23.54;52.27;98263.78;4936830;28;102554;-92
2022/08/01 10:17:01;;;;;;;;;1.00;1.00;;;;;23.56;52.32;98277.28;4917814;28;104366;-92
2022/08/01 10:19:32;;;;;;;;;1.00;1.00;;;;;23.60;52.62;98281.09;4941863;28;103516;-92
2022/08/01 10:21:59;;;;;;;;;0.00;0.00;;;;;23.61;52.41;98277.22;4937285;28;102326;-93
2022/08/01 10:24:28;;;;;;;;;0.00;0.00;;;;;23.62;52.34;98276.13;4952531;28;102206;-92
2022/08/01 10:27:03;;;;;;;;;0.33;0.33;;;;;23.62;52.60;98283.56;4935039;28;108978;-92
2022/08/01 10:30:03;;;;;;;;;1.00;1.00;;;;;23.62;52.42;98280.81;4949985;28;102068;-92
2022/08/01 10:32:49;;;;;;;;;1.00;1.00;;;;;23.63;52.82;98282.47;4934923;28;102841;-92
2022/08/01 10:35:17;;;;;;;;;1.00;0.00;;;;;23.64;52.22;98284.91;4954007;28;102648;-92
2022/08/01 10:38:04;;;;;;;;;0.33;0.33;;;;;23.63;52.38;98265.91;4935811;28;110944;-92
2022/08/01 10:40:36;;;;;;;;;0.00;0.00;;;;;23.65;52.50;98272.75;4948659;28;102303;-92
2022/08/01 10:43:05;;;;;;;;;0.00;0.00;;;;;23.66;52.39;98277.16;4950462;28;102505;-92
2022/08/01 10:45:33;;;;;;;;;0.00;0.00;;;;;23.64;52.47;98270.31;4947264;28;102306;-92
2022/08/01 10:48:11;;;;;;;;;2.00;1.33;;;;;23.65;52.47;98274.69;4934098;28;104402;-92
2022/08/01 10:50:45;;;;;;;;;1.00;1.00;;;;;23.65;52.68;98280.22;4915154;28;102413;-92
2022/08/01 10:53:18;;;;;;;;;0.67;0.67;;;;;23.65;52.70;98274.69;4930500;28;105371;-92
2022/08/01 10:56:00;;;;;;;;;1.00;0.00;;;;;23.66;52.79;98270.81;4938765;28;102350;-92
2022/08/01 10:58:37;;;;;;;;;0.00;0.00;;;;;23.68;52.64;98276.88;4914678;28;108956;-92
2022/08/01 11:01:17;;;;;;;;;1.00;0.33;;;;;23.68;52.59;98263.09;4936408;28;103731;-91
2022/08/01 11:04:09;;;;;;;;;0.00;0.00;;;;;23.68;52.47;98263.91;4932914;28;103011;-92
2022/08/01 11:07:01;;;;;;;;;1.00;1.00;;;;;23.70;52.40;98258.91;4931781;28;103155;-92
2022/08/01 11:09:50;;;;;;;;;0.00;0.00;;;;;23.70;52.45;98261.66;4950853;28;109148;-93
2022/08/01 11:12:18;;;;;;;;;1.00;1.00;;;;;23.69;52.62;98259.19;4934627;28;102915;-92
2022/08/01 11:14:59;;;;;;;;;0.00;0.00;;;;;23.72;52.49;98261.38;4937081;28;103062;-92
2022/08/01 11:17:47;;;;;;;;;0.00;0.00;;;;;23.71;52.51;98251.44;4947419;28;102708;-91
2022/08/01 11:20:16;;;;;;;;;1.00;1.00;;;;;23.71;52.63;98263.31;4946353;28;109922;-92
2022/08/01 11:23:06;;;;;;;;;1.00;1.00;;;;;23.70;52.58;98256.13;4952224;28;102248;-92
2022/08/01 11:25:33;;;;;;;;;0.67;0.67;;;;;23.73;52.60;98255.53;4934244;28;102342;-92
2022/08/01 11:28:24;;;;;;;;;2.00;1.00;;;;;23.73;52.41;98271.31;4953421;28;103668;-92
2022/08/01 11:31:10;;;;;;;;;1.00;0.00;;;;;23.72;52.49;98264.97;4945785;28;108952;-93
2022/08/01 11:33:42;;;;;;;;;1.00;0.67;;;;;23.73;52.56;98266.56;4947811;28;104060;-92
2022/08/01 11:36:20;;;;;;;;;0.00;0.00;;;;;23.74;52.62;98268.22;4927539;28;102273;-92
2022/08/01 11:39:07;;;;;;;;;0.00;0.00;;;;;23.75;52.32;98263.53;4951188;28;102532;-92
2022/08/01 11:41:39;;;;;;;;;2.00;1.00;;;;;23.75;52.11;98258.00;4945858;28;104051;-92